Airfield :
LOGIN :

Register | Disclaimer

   EN    FR    IT 

 










Legend :    VFR   Marginal VFR   IFR   Intensive IFR   Very Intensive IFR
Visi :
Ceiling :
>= 8 km
>= 3000ft
5 to 8 km
1000 to 3000 ft
1500m to 5 km
500 to 1000 ft
800 to 1500m
200 to 500 ft
< 800m
< 200 ft
Symbols :   Thunderstorms  Fog  Heavy snow  Heavy precipitations  Wind > 20 kt
SIGMETs :     Misc.  Thunderstorms  Icing  Turbulence  Mountain Waves  Volcanic Ashes






- Airport Elevation : 143 ft
- IATA code : VDP


EKVD - Kolding Vamdrup

CURRENT METAR :
  • 191250Z 24012KT 4500 -RADZ BR BKN005 08/08 Q1007

EXPIRED METARs :
  • 191220Z 25010KT 5000 -RA BR BKN005 08/08 Q1006
  • 191150Z 22007KT 5000 -RA BR BKN004 08/07 Q1006
  • 191120Z 18003KT 4500 BR OVC003 07/06 Q1006
  • 191050Z 16006KT 2500 BR BKN003 06/06 Q1005
  • 191020Z 15006KT 2500 BR BKN003 06/05 Q1005

TAF TAF EKVD
Valid from the 19 at 12:00 until the 19 at 17:00 UTC


191155Z 1912/1917 20008KT 2500 -RADZ BR BKN004
TEMPO 1912/1915 5000 BKN008
BECMG 1915/1917 9999 NSW SCT010 BKN015



MET'MAP, your aeronautical weather chart ! - Copyright ORBIFLY December 2007 - Disclaimer

ORBIFLY MET'MAP TEAM :

Programming & Development : Alexandra Zaïnal
Concept & Development : Baudouin d'Aumeries
Co-Development & Prog : Marc-Olivier Méhu
Technical & hardware support : Manuel Goepfert

Contact : metmap@orbifly.com




SOURCES & CREDITS :

   NOAA